sensor_id;sensor_type;location;lat;lon;timestamp;temperature;humidity
40636;DHT22;26642;55.766;37.828;2023-07-31T00:02:21;19.40;79.30
40636;DHT22;26642;55.766;37.828;2023-07-31T00:04:47;19.40;78.90
40636;DHT22;26642;55.766;37.828;2023-07-31T00:07:14;19.40;78.60
40636;DHT22;26642;55.766;37.828;2023-07-31T00:09:40;19.40;79.80
40636;DHT22;26642;55.766;37.828;2023-07-31T00:12:07;19.40;80.50
40636;DHT22;26642;55.766;37.828;2023-07-31T00:14:33;19.30;79.80
40636;DHT22;26642;55.766;37.828;2023-07-31T00:16:59;19.30;81.30
40636;DHT22;26642;55.766;37.828;2023-07-31T00:19:25;19.30;80.50
40636;DHT22;26642;55.766;37.828;2023-07-31T00:21:51;19.20;80.30
40636;DHT22;26642;55.766;37.828;2023-07-31T00:24:17;19.20;81.10
40636;DHT22;26642;55.766;37.828;2023-07-31T00:26:42;19.10;81.30
40636;DHT22;26642;55.766;37.828;2023-07-31T00:29:08;19.10;81.10
40636;DHT22;26642;55.766;37.828;2023-07-31T00:31:36;19.00;81.50
40636;DHT22;26642;55.766;37.828;2023-07-31T00:34:02;19.00;81.20
40636;DHT22;26642;55.766;37.828;2023-07-31T00:36:28;19.10;80.80
40636;DHT22;26642;55.766;37.828;2023-07-31T00:38:54;19.10;80.40
40636;DHT22;26642;55.766;37.828;2023-07-31T00:41:19;19.00;80.70
40636;DHT22;26642;55.766;37.828;2023-07-31T00:43:45;19.10;80.80
40636;DHT22;26642;55.766;37.828;2023-07-31T00:46:12;19.10;80.90
40636;DHT22;26642;55.766;37.828;2023-07-31T00:48:39;19.10;81.40
40636;DHT22;26642;55.766;37.828;2023-07-31T00:51:06;19.00;81.10
40636;DHT22;26642;55.766;37.828;2023-07-31T00:53:34;19.10;80.80
40636;DHT22;26642;55.766;37.828;2023-07-31T00:56:00;19.10;80.60
40636;DHT22;26642;55.766;37.828;2023-07-31T00:58:26;19.00;81.60
40636;DHT22;26642;55.766;37.828;2023-07-31T01:00:52;18.90;82.20
40636;DHT22;26642;55.766;37.828;2023-07-31T01:03:18;18.90;82.50
40636;DHT22;26642;55.766;37.828;2023-07-31T01:10:56;18.70;83.70
40636;DHT22;26642;55.766;37.828;2023-07-31T01:13:26;18.60;83.80
40636;DHT22;26642;55.766;37.828;2023-07-31T01:15:52;18.60;83.50
40636;DHT22;26642;55.766;37.828;2023-07-31T01:18:18;18.60;83.40
40636;DHT22;26642;55.766;37.828;2023-07-31T01:20:48;18.70;82.80
40636;DHT22;26642;55.766;37.828;2023-07-31T01:23:36;18.70;83.10
40636;DHT22;26642;55.766;37.828;2023-07-31T01:26:11;18.70;83.00
40636;DHT22;26642;55.766;37.828;2023-07-31T01:31:13;18.70;82.40
40636;DHT22;26642;55.766;37.828;2023-07-31T01:33:39;18.50;83.70
40636;DHT22;26642;55.766;37.828;2023-07-31T01:36:05;18.50;83.80
40636;DHT22;26642;55.766;37.828;2023-07-31T01:38:32;18.50;84.30
40636;DHT22;26642;55.766;37.828;2023-07-31T01:40:58;18.50;83.80
40636;DHT22;26642;55.766;37.828;2023-07-31T01:43:25;18.60;83.00
40636;DHT22;26642;55.766;37.828;2023-07-31T01:45:51;18.50;83.30
40636;DHT22;26642;55.766;37.828;2023-07-31T01:48:17;18.60;83.40
40636;DHT22;26642;55.766;37.828;2023-07-31T01:50:43;18.30;84.00
40636;DHT22;26642;55.766;37.828;2023-07-31T01:53:09;18.40;83.90
40636;DHT22;26642;55.766;37.828;2023-07-31T01:55:35;18.50;84.00
40636;DHT22;26642;55.766;37.828;2023-07-31T01:58:01;18.50;84.60
40636;DHT22;26642;55.766;37.828;2023-07-31T02:00:26;18.50;85.00
40636;DHT22;26642;55.766;37.828;2023-07-31T02:02:52;18.30;85.10
40636;DHT22;26642;55.766;37.828;2023-07-31T02:05:19;18.40;84.70
40636;DHT22;26642;55.766;37.828;2023-07-31T02:07:45;18.40;84.60
40636;DHT22;26642;55.766;37.828;2023-07-31T02:10:11;18.50;83.80
40636;DHT22;26642;55.766;37.828;2023-07-31T02:12:36;18.50;83.70
40636;DHT22;26642;55.766;37.828;2023-07-31T02:15:03;18.50;83.70
40636;DHT22;26642;55.766;37.828;2023-07-31T02:17:30;18.50;83.50
40636;DHT22;26642;55.766;37.828;2023-07-31T02:19:56;18.60;82.90
40636;DHT22;26642;55.766;37.828;2023-07-31T02:22:21;18.50;83.80
40636;DHT22;26642;55.766;37.828;2023-07-31T02:24:47;18.60;84.40
40636;DHT22;26642;55.766;37.828;2023-07-31T02:27:13;18.70;84.30
40636;DHT22;26642;55.766;37.828;2023-07-31T02:29:39;18.80;84.10
40636;DHT22;26642;55.766;37.828;2023-07-31T02:32:05;19.00;83.50
40636;DHT22;26642;55.766;37.828;2023-07-31T02:34:31;19.20;83.30
40636;DHT22;26642;55.766;37.828;2023-07-31T02:36:57;19.30;82.60
40636;DHT22;26642;55.766;37.828;2023-07-31T02:39:23;19.40;82.80
40636;DHT22;26642;55.766;37.828;2023-07-31T02:41:49;19.60;82.80
40636;DHT22;26642;55.766;37.828;2023-07-31T02:44:16;19.70;82.40
40636;DHT22;26642;55.766;37.828;2023-07-31T02:46:42;19.80;82.00
40636;DHT22;26642;55.766;37.828;2023-07-31T02:49:08;20.00;81.40
40636;DHT22;26642;55.766;37.828;2023-07-31T02:51:34;20.10;81.20
40636;DHT22;26642;55.766;37.828;2023-07-31T02:54:00;20.30;80.60
40636;DHT22;26642;55.766;37.828;2023-07-31T02:56:26;20.40;80.00
40636;DHT22;26642;55.766;37.828;2023-07-31T02:58:52;20.40;79.70
40636;DHT22;26642;55.766;37.828;2023-07-31T03:01:18;20.50;80.10
40636;DHT22;26642;55.766;37.828;2023-07-31T03:03:43;20.30;79.40
40636;DHT22;26642;55.766;37.828;2023-07-31T03:06:11;20.30;79.80
40636;DHT22;26642;55.766;37.828;2023-07-31T03:08:37;20.30;79.70
40636;DHT22;26642;55.766;37.828;2023-07-31T03:11:03;20.10;79.40
40636;DHT22;26642;55.766;37.828;2023-07-31T03:13:29;20.10;79.20
40636;DHT22;26642;55.766;37.828;2023-07-31T03:15:55;20.00;78.70
40636;DHT22;26642;55.766;37.828;2023-07-31T03:18:21;20.00;78.60
40636;DHT22;26642;55.766;37.828;2023-07-31T03:20:47;20.00;78.50
40636;DHT22;26642;55.766;37.828;2023-07-31T03:23:12;20.00;79.50
40636;DHT22;26642;55.766;37.828;2023-07-31T03:25:39;20.00;81.00
40636;DHT22;26642;55.766;37.828;2023-07-31T03:28:05;19.90;80.60
40636;DHT22;26642;55.766;37.828;2023-07-31T03:30:31;19.70;79.40
40636;DHT22;26642;55.766;37.828;2023-07-31T03:32:58;19.70;80.00
40636;DHT22;26642;55.766;37.828;2023-07-31T03:35:24;19.80;79.90
40636;DHT22;26642;55.766;37.828;2023-07-31T03:37:50;19.70;80.40
40636;DHT22;26642;55.766;37.828;2023-07-31T03:40:16;19.80;80.00
40636;DHT22;26642;55.766;37.828;2023-07-31T03:42:42;19.80;80.00
40636;DHT22;26642;55.766;37.828;2023-07-31T03:45:08;19.90;80.70
40636;DHT22;26642;55.766;37.828;2023-07-31T03:47:34;19.70;82.10
40636;DHT22;26642;55.766;37.828;2023-07-31T03:50:00;19.70;83.10
40636;DHT22;26642;55.766;37.828;2023-07-31T03:52:26;19.80;82.10
40636;DHT22;26642;55.766;37.828;2023-07-31T03:54:52;19.90;81.30
40636;DHT22;26642;55.766;37.828;2023-07-31T03:57:18;19.90;80.90
40636;DHT22;26642;55.766;37.828;2023-07-31T03:59:44;20.00;80.90
40636;DHT22;26642;55.766;37.828;2023-07-31T04:02:10;20.30;79.80
40636;DHT22;26642;55.766;37.828;2023-07-31T04:04:36;20.50;78.90
40636;DHT22;26642;55.766;37.828;2023-07-31T04:07:02;20.70;78.00
40636;DHT22;26642;55.766;37.828;2023-07-31T04:09:27;21.00;77.50
40636;DHT22;26642;55.766;37.828;2023-07-31T04:11:53;21.10;77.20
40636;DHT22;26642;55.766;37.828;2023-07-31T04:14:19;21.30;76.80
40636;DHT22;26642;55.766;37.828;2023-07-31T04:16:45;21.50;75.90
40636;DHT22;26642;55.766;37.828;2023-07-31T04:19:11;21.80;75.20
40636;DHT22;26642;55.766;37.828;2023-07-31T04:21:42;21.90;74.20
40636;DHT22;26642;55.766;37.828;2023-07-31T04:24:08;22.10;74.80
40636;DHT22;26642;55.766;37.828;2023-07-31T04:26:34;22.30;74.50
40636;DHT22;26642;55.766;37.828;2023-07-31T04:29:00;22.60;72.60
40636;DHT22;26642;55.766;37.828;2023-07-31T04:31:25;22.70;72.10
40636;DHT22;26642;55.766;37.828;2023-07-31T04:33:51;22.80;71.10
40636;DHT22;26642;55.766;37.828;2023-07-31T04:36:17;22.90;71.00
40636;DHT22;26642;55.766;37.828;2023-07-31T04:38:43;23.10;72.00
40636;DHT22;26642;55.766;37.828;2023-07-31T04:41:09;23.30;72.20
40636;DHT22;26642;55.766;37.828;2023-07-31T04:43:35;23.40;69.50
40636;DHT22;26642;55.766;37.828;2023-07-31T04:46:05;23.60;69.00
40636;DHT22;26642;55.766;37.828;2023-07-31T04:48:30;23.80;69.50
40636;DHT22;26642;55.766;37.828;2023-07-31T04:50:56;23.90;67.20
40636;DHT22;26642;55.766;37.828;2023-07-31T04:53:23;24.10;69.20
40636;DHT22;26642;55.766;37.828;2023-07-31T04:55:49;24.20;70.20
40636;DHT22;26642;55.766;37.828;2023-07-31T04:58:15;24.40;70.50
40636;DHT22;26642;55.766;37.828;2023-07-31T05:00:41;24.50;69.90
40636;DHT22;26642;55.766;37.828;2023-07-31T05:03:07;24.70;69.70
40636;DHT22;26642;55.766;37.828;2023-07-31T05:05:33;24.80;69.40
40636;DHT22;26642;55.766;37.828;2023-07-31T05:07:58;25.00;69.10
40636;DHT22;26642;55.766;37.828;2023-07-31T05:10:24;25.20;66.20
40636;DHT22;26642;55.766;37.828;2023-07-31T05:12:50;25.40;66.20
40636;DHT22;26642;55.766;37.828;2023-07-31T05:15:16;25.60;65.40
40636;DHT22;26642;55.766;37.828;2023-07-31T05:17:42;25.80;66.80
40636;DHT22;26642;55.766;37.828;2023-07-31T05:20:08;26.10;67.30
40636;DHT22;26642;55.766;37.828;2023-07-31T05:22:34;26.20;66.40
40636;DHT22;26642;55.766;37.828;2023-07-31T05:25:00;26.40;66.00
40636;DHT22;26642;55.766;37.828;2023-07-31T05:27:26;26.50;66.00
40636;DHT22;26642;55.766;37.828;2023-07-31T05:29:52;26.70;64.70
40636;DHT22;26642;55.766;37.828;2023-07-31T05:32:18;26.90;65.30
40636;DHT22;26642;55.766;37.828;2023-07-31T05:34:44;27.00;64.90
40636;DHT22;26642;55.766;37.828;2023-07-31T05:37:10;27.20;64.90
40636;DHT22;26642;55.766;37.828;2023-07-31T05:39:37;27.30;64.20
40636;DHT22;26642;55.766;37.828;2023-07-31T05:42:03;27.30;63.60
40636;DHT22;26642;55.766;37.828;2023-07-31T05:44:29;27.30;63.60
40636;DHT22;26642;55.766;37.828;2023-07-31T05:46:55;27.40;63.70
40636;DHT22;26642;55.766;37.828;2023-07-31T05:49:21;27.40;63.20
40636;DHT22;26642;55.766;37.828;2023-07-31T05:51:47;27.40;59.20
40636;DHT22;26642;55.766;37.828;2023-07-31T05:54:13;27.50;60.90
40636;DHT22;26642;55.766;37.828;2023-07-31T05:56:39;27.50;62.00
40636;DHT22;26642;55.766;37.828;2023-07-31T05:59:05;27.60;61.30
40636;DHT22;26642;55.766;37.828;2023-07-31T06:01:31;27.70;61.80
40636;DHT22;26642;55.766;37.828;2023-07-31T06:03:57;27.80;61.00
40636;DHT22;26642;55.766;37.828;2023-07-31T06:06:23;27.90;62.00
40636;DHT22;26642;55.766;37.828;2023-07-31T06:08:49;27.90;57.10
40636;DHT22;26642;55.766;37.828;2023-07-31T06:11:15;28.00;61.40
40636;DHT22;26642;55.766;37.828;2023-07-31T06:13:41;28.10;61.00
40636;DHT22;26642;55.766;37.828;2023-07-31T06:16:07;28.20;60.60
40636;DHT22;26642;55.766;37.828;2023-07-31T06:18:33;28.20;60.00
40636;DHT22;26642;55.766;37.828;2023-07-31T06:20:59;28.30;57.80
40636;DHT22;26642;55.766;37.828;2023-07-31T06:23:25;28.30;60.00
40636;DHT22;26642;55.766;37.828;2023-07-31T06:25:51;28.50;59.30
40636;DHT22;26642;55.766;37.828;2023-07-31T06:28:17;28.60;59.10
40636;DHT22;26642;55.766;37.828;2023-07-31T06:30:43;28.60;59.20
40636;DHT22;26642;55.766;37.828;2023-07-31T06:33:09;28.70;59.50
40636;DHT22;26642;55.766;37.828;2023-07-31T06:35:35;28.70;59.10
40636;DHT22;26642;55.766;37.828;2023-07-31T06:38:01;28.70;57.80
40636;DHT22;26642;55.766;37.828;2023-07-31T06:40:28;28.70;59.30
40636;DHT22;26642;55.766;37.828;2023-07-31T06:42:54;28.70;59.80
40636;DHT22;26642;55.766;37.828;2023-07-31T06:45:20;28.70;57.80
40636;DHT22;26642;55.766;37.828;2023-07-31T06:47:47;28.60;58.90
40636;DHT22;26642;55.766;37.828;2023-07-31T06:50:13;28.60;58.80
40636;DHT22;26642;55.766;37.828;2023-07-31T06:52:39;28.60;58.70
40636;DHT22;26642;55.766;37.828;2023-07-31T06:55:18;28.60;58.10
40636;DHT22;26642;55.766;37.828;2023-07-31T06:57:48;28.50;57.00
40636;DHT22;26642;55.766;37.828;2023-07-31T07:00:14;28.60;61.90
40636;DHT22;26642;55.766;37.828;2023-07-31T07:02:40;28.60;62.30
40636;DHT22;26642;55.766;37.828;2023-07-31T07:05:08;28.50;61.30
40636;DHT22;26642;55.766;37.828;2023-07-31T07:07:34;28.50;61.40
40636;DHT22;26642;55.766;37.828;2023-07-31T07:10:00;28.50;60.20
40636;DHT22;26642;55.766;37.828;2023-07-31T07:12:29;28.50;58.60
40636;DHT22;26642;55.766;37.828;2023-07-31T07:14:55;28.50;61.30
40636;DHT22;26642;55.766;37.828;2023-07-31T07:17:23;28.50;61.90
40636;DHT22;26642;55.766;37.828;2023-07-31T07:19:49;28.50;62.10
40636;DHT22;26642;55.766;37.828;2023-07-31T07:22:15;28.50;61.70
40636;DHT22;26642;55.766;37.828;2023-07-31T07:24:41;28.40;62.20
40636;DHT22;26642;55.766;37.828;2023-07-31T07:27:07;28.40;61.70
40636;DHT22;26642;55.766;37.828;2023-07-31T07:29:38;28.40;60.20
40636;DHT22;26642;55.766;37.828;2023-07-31T07:32:04;28.40;61.20
40636;DHT22;26642;55.766;37.828;2023-07-31T07:34:30;28.40;60.90
40636;DHT22;26642;55.766;37.828;2023-07-31T07:36:56;28.40;60.90
40636;DHT22;26642;55.766;37.828;2023-07-31T07:39:22;28.30;60.80
40636;DHT22;26642;55.766;37.828;2023-07-31T07:41:48;28.30;61.20
40636;DHT22;26642;55.766;37.828;2023-07-31T07:44:14;28.30;61.20
40636;DHT22;26642;55.766;37.828;2023-07-31T07:46:41;28.20;60.80
40636;DHT22;26642;55.766;37.828;2023-07-31T07:49:07;28.20;61.70
40636;DHT22;26642;55.766;37.828;2023-07-31T07:51:33;28.20;61.80
40636;DHT22;26642;55.766;37.828;2023-07-31T07:53:59;28.20;62.40
40636;DHT22;26642;55.766;37.828;2023-07-31T07:56:26;28.10;62.40
40636;DHT22;26642;55.766;37.828;2023-07-31T07:58:53;28.10;62.20
40636;DHT22;26642;55.766;37.828;2023-07-31T08:01:19;28.10;61.90
40636;DHT22;26642;55.766;37.828;2023-07-31T08:03:46;28.00;63.20
40636;DHT22;26642;55.766;37.828;2023-07-31T08:06:12;27.90;58.00
40636;DHT22;26642;55.766;37.828;2023-07-31T08:08:38;27.90;61.90
40636;DHT22;26642;55.766;37.828;2023-07-31T08:11:05;27.90;61.10
40636;DHT22;26642;55.766;37.828;2023-07-31T08:13:31;27.80;63.00
40636;DHT22;26642;55.766;37.828;2023-07-31T08:15:57;27.80;60.60
40636;DHT22;26642;55.766;37.828;2023-07-31T08:18:23;27.80;62.90
40636;DHT22;26642;55.766;37.828;2023-07-31T08:20:49;27.80;62.20
40636;DHT22;26642;55.766;37.828;2023-07-31T08:23:15;27.80;62.30
40636;DHT22;26642;55.766;37.828;2023-07-31T08:25:41;27.70;63.10
40636;DHT22;26642;55.766;37.828;2023-07-31T08:28:07;27.80;61.90
40636;DHT22;26642;55.766;37.828;2023-07-31T08:30:33;27.70;61.80
40636;DHT22;26642;55.766;37.828;2023-07-31T08:33:00;27.70;61.20
40636;DHT22;26642;55.766;37.828;2023-07-31T08:35:26;27.70;62.00
40636;DHT22;26642;55.766;37.828;2023-07-31T08:37:55;27.70;61.50
40636;DHT22;26642;55.766;37.828;2023-07-31T08:40:21;27.70;61.60
40636;DHT22;26642;55.766;37.828;2023-07-31T08:42:49;27.70;62.10
40636;DHT22;26642;55.766;37.828;2023-07-31T08:45:17;27.60;63.20
40636;DHT22;26642;55.766;37.828;2023-07-31T08:47:48;27.60;62.90
40636;DHT22;26642;55.766;37.828;2023-07-31T08:50:16;27.50;64.60
40636;DHT22;26642;55.766;37.828;2023-07-31T08:52:42;27.50;64.20
40636;DHT22;26642;55.766;37.828;2023-07-31T08:55:09;27.50;64.70
40636;DHT22;26642;55.766;37.828;2023-07-31T08:57:36;27.40;56.80
40636;DHT22;26642;55.766;37.828;2023-07-31T09:00:04;27.40;63.00
40636;DHT22;26642;55.766;37.828;2023-07-31T09:03:06;27.40;61.80
40636;DHT22;26642;55.766;37.828;2023-07-31T09:05:36;27.40;64.10
40636;DHT22;26642;55.766;37.828;2023-07-31T09:08:04;27.30;53.40
40636;DHT22;26642;55.766;37.828;2023-07-31T09:10:31;27.40;60.10
40636;DHT22;26642;55.766;37.828;2023-07-31T09:12:57;27.30;63.40
40636;DHT22;26642;55.766;37.828;2023-07-31T09:15:24;27.30;62.00
40636;DHT22;26642;55.766;37.828;2023-07-31T09:18:02;27.20;64.00
40636;DHT22;26642;55.766;37.828;2023-07-31T09:20:28;27.20;62.50
40636;DHT22;26642;55.766;37.828;2023-07-31T09:22:55;27.20;54.00
40636;DHT22;26642;55.766;37.828;2023-07-31T09:25:22;27.10;54.70
40636;DHT22;26642;55.766;37.828;2023-07-31T09:27:53;27.10;55.90
40636;DHT22;26642;55.766;37.828;2023-07-31T09:30:19;27.10;58.60
40636;DHT22;26642;55.766;37.828;2023-07-31T09:32:47;27.10;56.70
40636;DHT22;26642;55.766;37.828;2023-07-31T09:35:33;27.10;59.30
40636;DHT22;26642;55.766;37.828;2023-07-31T09:38:05;27.10;55.70
40636;DHT22;26642;55.766;37.828;2023-07-31T09:40:33;27.10;61.30
40636;DHT22;26642;55.766;37.828;2023-07-31T09:43:03;27.10;64.50
40636;DHT22;26642;55.766;37.828;2023-07-31T09:45:32;27.10;57.10
40636;DHT22;26642;55.766;37.828;2023-07-31T09:47:59;27.00;55.40
40636;DHT22;26642;55.766;37.828;2023-07-31T09:50:25;26.90;59.20
40636;DHT22;26642;55.766;37.828;2023-07-31T09:52:51;26.90;55.50
40636;DHT22;26642;55.766;37.828;2023-07-31T09:55:19;27.00;54.80
40636;DHT22;26642;55.766;37.828;2023-07-31T09:57:47;26.90;56.90
40636;DHT22;26642;55.766;37.828;2023-07-31T10:00:15;27.00;55.00
40636;DHT22;26642;55.766;37.828;2023-07-31T10:02:42;26.90;60.10
40636;DHT22;26642;55.766;37.828;2023-07-31T10:05:11;26.90;59.20
40636;DHT22;26642;55.766;37.828;2023-07-31T10:07:38;27.00;60.90
40636;DHT22;26642;55.766;37.828;2023-07-31T10:10:08;27.00;63.90
40636;DHT22;26642;55.766;37.828;2023-07-31T10:12:35;26.90;56.70
40636;DHT22;26642;55.766;37.828;2023-07-31T10:15:02;26.90;56.40
40636;DHT22;26642;55.766;37.828;2023-07-31T10:17:30;26.90;54.40
40636;DHT22;26642;55.766;37.828;2023-07-31T10:19:59;26.90;59.00
40636;DHT22;26642;55.766;37.828;2023-07-31T10:22:29;26.80;55.00
40636;DHT22;26642;55.766;37.828;2023-07-31T10:24:58;26.80;55.20
40636;DHT22;26642;55.766;37.828;2023-07-31T10:27:25;26.70;57.10
40636;DHT22;26642;55.766;37.828;2023-07-31T10:29:53;26.70;57.10
40636;DHT22;26642;55.766;37.828;2023-07-31T10:32:20;26.70;55.20
40636;DHT22;26642;55.766;37.828;2023-07-31T10:34:48;26.70;56.60
40636;DHT22;26642;55.766;37.828;2023-07-31T10:40:04;26.80;56.60
40636;DHT22;26642;55.766;37.828;2023-07-31T10:42:52;26.70;54.10
40636;DHT22;26642;55.766;37.828;2023-07-31T10:45:37;26.80;53.80
40636;DHT22;26642;55.766;37.828;2023-07-31T10:48:17;26.60;51.80
40636;DHT22;26642;55.766;37.828;2023-07-31T10:50:55;26.70;54.00
40636;DHT22;26642;55.766;37.828;2023-07-31T10:53:33;26.70;54.20
40636;DHT22;26642;55.766;37.828;2023-07-31T10:56:10;26.70;58.40
40636;DHT22;26642;55.766;37.828;2023-07-31T10:58:44;26.60;54.90
40636;DHT22;26642;55.766;37.828;2023-07-31T11:01:11;26.60;55.50
40636;DHT22;26642;55.766;37.828;2023-07-31T11:03:45;26.50;56.00
40636;DHT22;26642;55.766;37.828;2023-07-31T11:06:12;26.50;56.20
40636;DHT22;26642;55.766;37.828;2023-07-31T11:08:46;26.50;55.80
40636;DHT22;26642;55.766;37.828;2023-07-31T11:11:17;26.50;55.10
40636;DHT22;26642;55.766;37.828;2023-07-31T11:13:49;26.40;54.70
40636;DHT22;26642;55.766;37.828;2023-07-31T11:16:16;26.40;55.90
40636;DHT22;26642;55.766;37.828;2023-07-31T11:18:45;26.40;56.20
40636;DHT22;26642;55.766;37.828;2023-07-31T11:21:15;26.40;56.10
40636;DHT22;26642;55.766;37.828;2023-07-31T11:23:47;26.40;56.00
40636;DHT22;26642;55.766;37.828;2023-07-31T11:26:13;26.40;55.70
40636;DHT22;26642;55.766;37.828;2023-07-31T11:28:39;26.40;56.50
40636;DHT22;26642;55.766;37.828;2023-07-31T11:31:11;26.50;56.50
40636;DHT22;26642;55.766;37.828;2023-07-31T11:33:37;26.40;55.40
40636;DHT22;26642;55.766;37.828;2023-07-31T11:36:03;26.40;53.20
40636;DHT22;26642;55.766;37.828;2023-07-31T11:38:33;26.40;55.00
40636;DHT22;26642;55.766;37.828;2023-07-31T11:41:02;26.40;54.40
40636;DHT22;26642;55.766;37.828;2023-07-31T11:43:29;26.40;54.30
40636;DHT22;26642;55.766;37.828;2023-07-31T11:45:56;26.30;55.00
40636;DHT22;26642;55.766;37.828;2023-07-31T11:48:23;26.40;55.40
40636;DHT22;26642;55.766;37.828;2023-07-31T11:50:50;26.30;54.70
40636;DHT22;26642;55.766;37.828;2023-07-31T11:53:23;26.40;55.80
40636;DHT22;26642;55.766;37.828;2023-07-31T11:55:51;26.40;55.70
40636;DHT22;26642;55.766;37.828;2023-07-31T11:58:18;26.40;55.60
40636;DHT22;26642;55.766;37.828;2023-07-31T12:00:45;26.40;55.50
40636;DHT22;26642;55.766;37.828;2023-07-31T12:03:11;26.30;54.50
40636;DHT22;26642;55.766;37.828;2023-07-31T12:05:38;26.30;56.60
40636;DHT22;26642;55.766;37.828;2023-07-31T12:08:09;26.40;59.40
40636;DHT22;26642;55.766;37.828;2023-07-31T12:10:36;26.40;56.70
40636;DHT22;26642;55.766;37.828;2023-07-31T12:13:07;26.40;57.00
40636;DHT22;26642;55.766;37.828;2023-07-31T12:15:42;26.50;59.60
40636;DHT22;26642;55.766;37.828;2023-07-31T12:18:10;26.40;57.70
40636;DHT22;26642;55.766;37.828;2023-07-31T12:20:44;26.40;55.90
40636;DHT22;26642;55.766;37.828;2023-07-31T12:23:22;26.40;56.50
40636;DHT22;26642;55.766;37.828;2023-07-31T12:26:11;26.40;55.70
40636;DHT22;26642;55.766;37.828;2023-07-31T12:28:49;26.40;55.10
40636;DHT22;26642;55.766;37.828;2023-07-31T12:31:17;26.40;56.20
40636;DHT22;26642;55.766;37.828;2023-07-31T12:33:43;26.40;56.60
40636;DHT22;26642;55.766;37.828;2023-07-31T12:36:12;26.40;56.00
40636;DHT22;26642;55.766;37.828;2023-07-31T12:38:38;26.40;56.50
40636;DHT22;26642;55.766;37.828;2023-07-31T12:41:04;26.40;55.90
40636;DHT22;26642;55.766;37.828;2023-07-31T12:43:36;26.40;57.20
40636;DHT22;26642;55.766;37.828;2023-07-31T12:46:02;26.40;57.80
40636;DHT22;26642;55.766;37.828;2023-07-31T12:48:29;26.40;57.70
40636;DHT22;26642;55.766;37.828;2023-07-31T12:50:55;26.40;57.10
40636;DHT22;26642;55.766;37.828;2023-07-31T12:53:21;26.40;57.90
40636;DHT22;26642;55.766;37.828;2023-07-31T12:55:47;26.30;57.50
40636;DHT22;26642;55.766;37.828;2023-07-31T12:58:13;26.30;56.70
40636;DHT22;26642;55.766;37.828;2023-07-31T13:00:39;26.30;56.80
40636;DHT22;26642;55.766;37.828;2023-07-31T13:03:05;26.30;56.30
40636;DHT22;26642;55.766;37.828;2023-07-31T13:05:31;26.20;57.10
40636;DHT22;26642;55.766;37.828;2023-07-31T13:07:57;26.20;57.10
40636;DHT22;26642;55.766;37.828;2023-07-31T13:10:23;26.20;57.20
40636;DHT22;26642;55.766;37.828;2023-07-31T13:12:49;26.10;57.50
40636;DHT22;26642;55.766;37.828;2023-07-31T13:15:15;26.10;58.40
40636;DHT22;26642;55.766;37.828;2023-07-31T13:17:42;26.10;57.90
40636;DHT22;26642;55.766;37.828;2023-07-31T13:20:08;26.10;58.10
40636;DHT22;26642;55.766;37.828;2023-07-31T13:22:34;26.10;58.20
40636;DHT22;26642;55.766;37.828;2023-07-31T13:25:00;26.10;57.60
40636;DHT22;26642;55.766;37.828;2023-07-31T13:27:26;26.10;57.80
40636;DHT22;26642;55.766;37.828;2023-07-31T13:29:52;26.10;57.90
40636;DHT22;26642;55.766;37.828;2023-07-31T13:32:21;26.10;57.80
40636;DHT22;26642;55.766;37.828;2023-07-31T13:34:47;26.00;58.00
40636;DHT22;26642;55.766;37.828;2023-07-31T13:37:13;26.00;58.80
40636;DHT22;26642;55.766;37.828;2023-07-31T13:39:40;26.00;58.70
40636;DHT22;26642;55.766;37.828;2023-07-31T13:42:08;26.00;58.80
40636;DHT22;26642;55.766;37.828;2023-07-31T13:44:41;26.00;57.90
40636;DHT22;26642;55.766;37.828;2023-07-31T13:47:08;26.00;57.60
40636;DHT22;26642;55.766;37.828;2023-07-31T13:49:34;26.00;58.30
40636;DHT22;26642;55.766;37.828;2023-07-31T13:52:01;26.00;57.50
40636;DHT22;26642;55.766;37.828;2023-07-31T13:54:27;26.00;57.70
40636;DHT22;26642;55.766;37.828;2023-07-31T13:56:53;26.00;59.00
40636;DHT22;26642;55.766;37.828;2023-07-31T13:59:20;26.00;57.80
40636;DHT22;26642;55.766;37.828;2023-07-31T14:01:46;26.10;58.70
40636;DHT22;26642;55.766;37.828;2023-07-31T14:04:12;26.10;57.90
40636;DHT22;26642;55.766;37.828;2023-07-31T14:06:38;26.10;58.20
40636;DHT22;26642;55.766;37.828;2023-07-31T14:09:05;26.10;58.30
40636;DHT22;26642;55.766;37.828;2023-07-31T14:11:31;26.10;57.90
40636;DHT22;26642;55.766;37.828;2023-07-31T14:13:57;26.10;57.70
40636;DHT22;26642;55.766;37.828;2023-07-31T14:16:23;26.00;57.10
40636;DHT22;26642;55.766;37.828;2023-07-31T14:18:49;26.00;57.50
40636;DHT22;26642;55.766;37.828;2023-07-31T14:21:15;26.00;58.10
40636;DHT22;26642;55.766;37.828;2023-07-31T14:23:42;26.00;59.80
40636;DHT22;26642;55.766;37.828;2023-07-31T14:26:08;26.00;59.90
40636;DHT22;26642;55.766;37.828;2023-07-31T14:28:34;26.00;60.50
40636;DHT22;26642;55.766;37.828;2023-07-31T14:31:00;26.00;60.60
40636;DHT22;26642;55.766;37.828;2023-07-31T14:33:25;26.00;60.70
40636;DHT22;26642;55.766;37.828;2023-07-31T14:35:52;26.00;61.00
40636;DHT22;26642;55.766;37.828;2023-07-31T14:38:18;25.90;61.30
40636;DHT22;26642;55.766;37.828;2023-07-31T14:40:44;26.00;61.50
40636;DHT22;26642;55.766;37.828;2023-07-31T14:43:10;25.90;61.40
40636;DHT22;26642;55.766;37.828;2023-07-31T14:45:36;25.90;61.00
40636;DHT22;26642;55.766;37.828;2023-07-31T14:48:02;25.90;61.50
40636;DHT22;26642;55.766;37.828;2023-07-31T14:50:28;25.80;61.80
40636;DHT22;26642;55.766;37.828;2023-07-31T14:52:54;25.70;61.20
40636;DHT22;26642;55.766;37.828;2023-07-31T14:55:20;25.70;62.30
40636;DHT22;26642;55.766;37.828;2023-07-31T14:57:46;25.70;62.40
40636;DHT22;26642;55.766;37.828;2023-07-31T15:00:13;25.70;61.90
40636;DHT22;26642;55.766;37.828;2023-07-31T15:02:39;25.60;62.60
40636;DHT22;26642;55.766;37.828;2023-07-31T15:05:05;25.60;62.70
40636;DHT22;26642;55.766;37.828;2023-07-31T15:07:35;25.50;62.60
40636;DHT22;26642;55.766;37.828;2023-07-31T15:10:02;25.40;63.00
40636;DHT22;26642;55.766;37.828;2023-07-31T15:12:28;25.40;62.50
40636;DHT22;26642;55.766;37.828;2023-07-31T15:14:54;25.40;63.00
40636;DHT22;26642;55.766;37.828;2023-07-31T15:17:20;25.40;63.20
40636;DHT22;26642;55.766;37.828;2023-07-31T15:19:46;25.30;63.60
40636;DHT22;26642;55.766;37.828;2023-07-31T15:22:12;25.30;63.80
40636;DHT22;26642;55.766;37.828;2023-07-31T15:24:38;25.40;63.40
40636;DHT22;26642;55.766;37.828;2023-07-31T15:27:07;25.30;64.00